Time;durP1;ratioP1;P1;durP2;ratioP2;P2;SDS_P1;SDS_P2;PMS_P1;PMS_P2;Temp;Humidity;BMP_temperature;BMP_pressure;BME280_temperature;BME280_humidity;BME280_pressure;Samples;Min_cycle;Max_cycle;Signal;HPM_P1;HPM_P2
2022/06/17 00:00:13;;;;;;;2.50;2.40;;;;;;;20.63;86.52;99738.97;5054100;28;20616;-62
2022/06/17 00:02:40;;;;;;;2.80;2.63;;;;;;;20.62;86.66;99745.09;5054493;28;20212;-62
2022/06/17 00:05:08;;;;;;;3.03;2.83;;;;;;;20.59;86.58;99742.69;5053783;28;20238;-62
2022/06/17 00:07:35;;;;;;;2.67;2.47;;;;;;;20.59;86.61;99739.25;5054203;28;20208;-62
2022/06/17 00:10:04;;;;;;;2.40;2.30;;;;;;;20.55;87.63;99733.41;5046387;28;20208;-62
2022/06/17 00:12:31;;;;;;;2.57;2.47;;;;;;;20.54;87.58;99736.97;5054249;28;20220;-62
2022/06/17 00:15:15;;;;;;;2.07;1.97;;;;;;;20.54;87.53;99731.75;5054380;28;20196;-62
2022/06/17 00:17:46;;;;;;;2.43;2.30;;;;;;;20.53;87.59;99735.28;5045633;28;20292;-62
2022/06/17 00:20:15;;;;;;;2.73;2.53;;;;;;;20.55;87.92;99737.81;5054724;28;20260;-62
2022/06/17 00:22:44;;;;;;;3.13;2.80;;;;;;;20.54;88.29;99725.72;5054073;28;20204;-63
2022/06/17 00:25:22;;;;;;;2.50;2.40;;;;;;;20.50;88.54;99727.69;5054325;28;20200;-62
2022/06/17 00:27:48;;;;;;;3.07;2.97;;;;;;;20.43;87.13;99729.00;5054091;28;20211;-62
2022/06/17 00:30:18;;;;;;;2.80;2.53;;;;;;;20.39;86.10;99733.59;5054229;28;20673;-63
2022/06/17 00:32:45;;;;;;;2.87;2.13;;;;;;;20.38;85.79;99731.09;5048372;28;20223;-63
2022/06/17 00:35:12;;;;;;;2.27;2.17;;;;;;;20.38;85.75;99728.50;5053950;28;20203;-62
2022/06/17 00:37:40;;;;;;;2.80;2.70;;;;;;;20.41;86.54;99730.91;5039017;28;20232;-62
2022/06/17 00:40:13;;;;;;;2.40;2.30;;;;;;;20.27;85.57;99708.34;5045339;28;20198;-62
2022/06/17 00:42:42;;;;;;;2.07;1.97;;;;;;;20.39;85.79;99724.94;5040175;28;20224;-63
2022/06/17 00:45:17;;;;;;;2.20;2.10;;;;;;;20.37;84.32;99725.03;5053891;28;20259;-63
2022/06/17 00:47:50;;;;;;;2.53;1.90;;;;;;;20.35;83.79;99726.09;5048764;28;20675;-62
2022/06/17 00:50:21;;;;;;;2.67;1.90;;;;;;;20.28;83.59;99719.59;5049196;28;20295;-62
2022/06/17 00:52:54;;;;;;;2.70;2.60;;;;;;;20.15;83.48;99703.06;5053338;28;20195;-62
2022/06/17 00:55:28;;;;;;;2.73;2.53;;;;;;;20.03;83.59;99719.47;5037658;28;20202;-63
2022/06/17 00:57:58;;;;;;;2.60;2.50;;;;;;;19.88;84.71;99718.66;5051380;28;20214;-62
2022/06/17 01:00:27;;;;;;;2.10;2.00;;;;;;;19.83;85.33;99713.78;5053816;28;20608;-62
2022/06/17 01:02:59;;;;;;;2.53;2.43;;;;;;;19.81;85.49;99713.03;5050233;28;20206;-62
2022/06/17 01:05:31;;;;;;;2.70;2.50;;;;;;;19.72;85.92;99726.59;5053371;28;20204;-62
2022/06/17 01:08:03;;;;;;;3.00;2.90;;;;;;;19.65;86.65;99720.09;5043996;28;20209;-62
2022/06/17 01:10:30;;;;;;;2.37;2.27;;;;;;;19.53;87.49;99717.44;5053490;28;20261;-62
2022/06/17 01:13:02;;;;;;;2.27;2.17;;;;;;;19.54;87.58;99717.34;5053086;28;20606;-63
2022/06/17 01:15:32;;;;;;;2.70;2.60;;;;;;;19.57;87.85;99714.56;5053606;28;20203;-62
2022/06/17 01:18:04;;;;;;;2.60;2.40;;;;;;;19.52;88.38;99716.59;5052867;28;20208;-62
2022/06/17 01:20:32;;;;;;;4.93;3.03;;;;;;;19.53;88.53;99705.28;5053616;28;20663;-63
2022/06/17 01:23:06;;;;;;;2.67;2.57;;;;;;;19.51;88.60;99703.72;5052770;28;20204;-62
2022/06/17 01:25:36;;;;;;;2.50;2.40;;;;;;;19.37;89.68;99710.56;5045719;28;20200;-62
2022/06/17 01:28:06;;;;;;;2.13;2.03;;;;;;;19.30;90.29;99703.22;5033073;28;20200;-63
2022/06/17 01:30:36;;;;;;;2.97;2.87;;;;;;;19.22;91.25;99690.69;5044404;28;20200;-63
2022/06/17 01:33:08;;;;;;;4.40;2.73;;;;;;;19.31;91.20;99699.69;5041550;28;20203;-62
2022/06/17 01:35:39;;;;;;;2.93;2.83;;;;;;;19.33;91.74;99692.63;5053160;28;20569;-62
2022/06/17 01:38:07;;;;;;;2.83;2.73;;;;;;;19.21;91.98;99688.19;5052432;28;20234;-62
2022/06/17 01:40:34;;;;;;;2.90;2.70;;;;;;;19.16;92.83;99687.63;5052915;28;20654;-62
2022/06/17 01:43:05;;;;;;;3.47;3.23;;;;;;;18.91;95.22;99696.06;5052934;28;20204;-62
2022/06/17 01:45:34;;;;;;;3.93;3.60;;;;;;;18.97;95.09;99689.66;5043340;28;20258;-62
2022/06/17 01:48:01;;;;;;;3.27;3.17;;;;;;;18.92;95.35;99681.31;5052719;28;20197;-62
2022/06/17 01:50:29;;;;;;;3.17;3.07;;;;;;;19.05;95.29;99692.63;5046750;28;20200;-63
2022/06/17 01:53:00;;;;;;;3.57;3.47;;;;;;;19.12;95.19;99693.94;5038184;28;20215;-63
2022/06/17 01:55:33;;;;;;;3.30;2.87;;;;;;;19.09;94.87;99673.34;5050754;28;20677;-63
2022/06/17 01:58:07;;;;;;;3.30;3.10;;;;;;;19.19;94.56;99682.25;5052323;28;20214;-62
2022/06/17 02:00:34;;;;;;;3.47;3.27;;;;;;;19.15;95.09;99676.41;5049818;28;20214;-62
2022/06/17 02:03:06;;;;;;;3.40;3.30;;;;;;;19.11;95.62;99680.09;5052255;28;20199;-62
2022/06/17 02:05:34;;;;;;;3.73;3.53;;;;;;;19.10;95.89;99682.78;5052464;28;20695;-63
2022/06/17 02:08:03;;;;;;;3.30;3.20;;;;;;;19.03;96.85;99673.72;5044528;28;20208;-62
2022/06/17 02:10:34;;;;;;;4.00;3.80;;;;;;;19.01;97.29;99678.16;5032329;28;20215;-62
2022/06/17 02:13:03;;;;;;;3.80;3.70;;;;;;;18.96;97.91;99677.59;5031897;28;20218;-62
2022/06/17 02:15:30;;;;;;;4.27;4.00;;;;;;;18.93;98.46;99675.19;5050754;28;20243;-63
2022/06/17 02:17:59;;;;;;;4.27;3.57;;;;;;;18.96;98.11;99685.41;5052163;28;20222;-62
2022/06/17 02:20:26;;;;;;;8.20;4.87;;;;;;;18.97;98.46;99684.44;5044917;28;20570;-62
2022/06/17 02:22:56;;;;;;;3.23;3.13;;;;;;;19.01;98.00;99685.94;5051982;28;20191;-62
2022/06/17 02:25:26;;;;;;;3.53;3.40;;;;;;;19.02;98.05;99685.03;5051796;28;20219;-62
2022/06/17 02:27:57;;;;;;;3.67;3.50;;;;;;;19.05;97.73;99700.44;5051990;28;20198;-62
2022/06/17 02:30:26;;;;;;;5.93;3.87;;;;;;;18.91;97.64;99670.06;5049847;28;20200;-62
2022/06/17 02:32:56;;;;;;;4.17;3.87;;;;;;;19.08;98.11;99692.44;5032117;28;20211;-63
2022/06/17 02:35:30;;;;;;;4.23;4.00;;;;;;;19.07;97.94;99689.00;5040278;28;20211;-62
2022/06/17 02:37:57;;;;;;;4.33;4.07;;;;;;;19.08;98.46;99695.06;5047252;28;20229;-62
2022/06/17 02:40:30;;;;;;;4.83;4.23;;;;;;;19.08;98.23;99697.66;5043642;28;20206;-63
2022/06/17 02:43:00;;;;;;;5.53;5.23;;;;;;;18.93;99.21;99672.59;5047333;28;20199;-63
2022/06/17 02:45:31;;;;;;;4.93;4.63;;;;;;;18.91;100.00;99690.00;5040364;28;20241;-63
2022/06/17 02:47:59;;;;;;;6.03;5.17;;;;;;;18.89;100.00;99695.31;5051835;28;20313;-62
2022/06/17 02:50:30;;;;;;;5.40;4.93;;;;;;;18.86;100.00;99698.94;5041602;28;20213;-63
2022/06/17 02:53:00;;;;;;;5.73;5.30;;;;;;;18.86;100.00;99693.75;5051071;28;20822;-63
2022/06/17 02:55:31;;;;;;;5.30;4.80;;;;;;;18.85;100.00;99697.25;5047766;28;20231;-62
2022/06/17 02:58:08;;;;;;;5.53;5.00;;;;;;;18.86;100.00;99695.50;5047436;28;20211;-62
2022/06/17 03:00:36;;;;;;;5.83;5.43;;;;;;;18.86;100.00;99703.28;5051301;28;20580;-62
2022/06/17 03:03:06;;;;;;;6.30;5.80;;;;;;;18.90;100.00;99703.97;5046145;28;20325;-63
2022/06/17 03:05:36;;;;;;;5.70;5.40;;;;;;;18.88;100.00;99707.47;5039565;28;20208;-63
2022/06/17 03:08:14;;;;;;;5.67;5.27;;;;;;;18.86;100.00;99704.13;5051300;28;20200;-62
2022/06/17 03:10:43;;;;;;;5.83;5.53;;;;;;;18.83;100.00;99706.06;5044704;28;20200;-62
2022/06/17 03:13:14;;;;;;;4.97;4.67;;;;;;;18.79;100.00;99710.63;5039617;28;20225;-63
2022/06/17 03:15:44;;;;;;;7.43;5.80;;;;;;;18.78;100.00;99710.69;5049671;28;20194;-63
2022/06/17 03:18:13;;;;;;;6.13;5.70;;;;;;;18.76;100.00;99710.78;5051017;28;20197;-62
2022/06/17 03:20:43;;;;;;;5.40;5.00;;;;;;;18.80;100.00;99720.06;5050816;28;20226;-62
2022/06/17 03:23:14;;;;;;;9.60;5.03;;;;;;;18.79;100.00;99718.41;5050937;28;20205;-63
2022/06/17 03:25:45;;;;;;;5.13;4.83;;;;;;;18.83;100.00;99713.88;5031488;28;20205;-63
2022/06/17 03:28:17;;;;;;;5.47;5.07;;;;;;;18.81;100.00;99718.31;5034015;28;20259;-63
2022/06/17 03:30:49;;;;;;;5.13;4.93;;;;;;;18.84;100.00;99725.91;5047512;28;20200;-62
2022/06/17 03:33:20;;;;;;;6.00;5.60;;;;;;;18.88;100.00;99733.44;5051076;28;20213;-63
2022/06/17 03:35:50;;;;;;;6.03;5.73;;;;;;;18.92;100.00;99728.06;5050739;28;20209;-62
2022/06/17 03:38:27;;;;;;;7.57;5.50;;;;;;;18.95;100.00;99730.47;5050887;28;20226;-63
2022/06/17 03:40:59;;;;;;;6.30;5.90;;;;;;;18.84;100.00;99705.97;5049435;28;20299;-63
2022/06/17 03:43:31;;;;;;;5.27;4.97;;;;;;;19.10;100.00;99726.97;5031165;28;20193;-63
2022/06/17 03:46:02;;;;;;;5.63;5.13;;;;;;;19.23;100.00;99725.31;5040337;28;20205;-62
2022/06/17 03:48:35;;;;;;;5.40;4.90;;;;;;;19.28;100.00;99723.28;5038047;28;20197;-63
2022/06/17 03:51:02;;;;;;;5.07;4.87;;;;;;;19.35;100.00;99728.00;5047219;28;20204;-62
2022/06/17 03:53:31;;;;;;;5.20;4.90;;;;;;;19.52;100.00;99729.59;5050830;28;20272;-63
2022/06/17 03:56:03;;;;;;;5.80;5.50;;;;;;;19.69;99.75;99737.22;5049736;28;20580;-62
2022/06/17 03:58:33;;;;;;;6.07;5.77;;;;;;;19.86;99.96;99729.19;5035927;28;20194;-62
2022/06/17 04:01:03;;;;;;;5.97;5.30;;;;;;;20.04;99.44;99731.53;5049678;28;20208;-63
2022/06/17 04:03:34;;;;;;;4.93;4.73;;;;;;;20.24;98.50;99729.34;5041156;28;20192;-63
2022/06/17 04:06:08;;;;;;;5.50;4.93;;;;;;;20.45;97.06;99719.34;5050534;28;20204;-63
2022/06/17 04:08:35;;;;;;;5.50;5.00;;;;;;;20.63;96.36;99720.72;5045373;28;20209;-63
2022/06/17 04:11:03;;;;;;;5.10;4.80;;;;;;;20.81;95.19;99722.09;5049216;28;20247;-62
2022/06/17 04:13:33;;;;;;;5.43;5.23;;;;;;;20.98;93.89;99725.34;5042666;28;20670;-62
2022/06/17 04:16:08;;;;;;;12.40;6.17;;;;;;;20.91;92.11;99720.56;5050237;28;20211;-63
2022/06/17 04:18:36;;;;;;;5.73;5.43;;;;;;;20.97;93.25;99718.47;5045741;28;20205;-63
2022/06/17 04:21:07;;;;;;;5.03;4.63;;;;;;;21.03;91.45;99723.28;5037246;28;20197;-63
2022/06/17 04:23:36;;;;;;;4.23;4.03;;;;;;;21.11;91.71;99729.66;5031941;28;20204;-63
2022/06/17 04:26:07;;;;;;;4.83;4.43;;;;;;;21.21;91.14;99735.91;5038757;28;20196;-62
2022/06/17 04:28:40;;;;;;;4.10;3.90;;;;;;;21.34;90.82;99733.31;5043343;28;20195;-63
2022/06/17 04:31:11;;;;;;;4.70;4.43;;;;;;;21.44;90.27;99729.13;5052546;28;20672;-63
2022/06/17 04:33:41;;;;;;;5.23;4.83;;;;;;;21.53;89.06;99732.84;5054425;28;20231;-62
2022/06/17 04:36:13;;;;;;;6.07;4.87;;;;;;;21.68;90.34;99731.81;5054251;28;20735;-64
2022/06/17 04:38:50;;;;;;;4.27;4.07;;;;;;;21.76;88.24;99717.25;5053822;28;20615;-63
2022/06/17 04:41:21;;;;;;;4.50;4.30;;;;;;;21.93;87.50;99722.16;5054111;28;20749;-63
2022/06/17 04:43:53;;;;;;;4.00;3.80;;;;;;;22.12;86.85;99728.66;5045917;28;20684;-63
2022/06/17 04:46:24;;;;;;;4.10;3.90;;;;;;;22.33;85.12;99721.84;5053630;28;20196;-63
2022/06/17 04:48:57;;;;;;;6.13;3.83;;;;;;;22.49;83.14;99725.00;5052964;28;20215;-63
2022/06/17 04:51:24;;;;;;;5.17;4.30;;;;;;;22.66;82.43;99729.00;5044831;28;20197;-63
2022/06/17 04:53:53;;;;;;;4.87;4.40;;;;;;;22.84;82.18;99735.50;5052534;28;20599;-63
2022/06/17 04:56:30;;;;;;;7.53;5.67;;;;;;;23.07;82.09;99725.91;5049848;28;20204;-63
2022/06/17 04:58:59;;;;;;;4.67;4.30;;;;;;;23.40;80.42;99728.56;5053543;28;20201;-64
2022/06/17 05:01:29;;;;;;;5.63;5.23;;;;;;;23.63;79.56;99724.97;5037910;28;20203;-63
2022/06/17 05:04:02;;;;;;;5.17;4.77;;;;;;;23.78;78.18;99705.44;5042104;28;20197;-63
2022/06/17 05:06:29;;;;;;;5.27;4.83;;;;;;;24.17;77.78;99735.47;5042147;28;20197;-63
2022/06/17 05:09:02;;;;;;;6.13;5.63;;;;;;;24.37;75.02;99741.72;5053427;28;20208;-63
2022/06/17 05:11:34;;;;;;;7.00;5.20;;;;;;;24.48;73.64;99728.59;5053217;28;20200;-63
2022/06/17 05:14:08;;;;;;;6.70;6.20;;;;;;;24.60;72.79;99732.81;5053494;28;20711;-63
2022/06/17 05:16:35;;;;;;;6.67;6.03;;;;;;;24.74;73.74;99739.53;5042777;28;20207;-63
2022/06/17 05:19:02;;;;;;;6.23;5.80;;;;;;;24.85;72.37;99740.31;5039361;28;20200;-64
2022/06/17 05:21:29;;;;;;;5.17;4.93;;;;;;;24.93;71.68;99745.78;5041324;28;20676;-63
2022/06/17 05:23:59;;;;;;;4.57;4.27;;;;;;;25.02;71.82;99726.63;5033380;28;20193;-63
2022/06/17 05:26:26;;;;;;;8.83;4.13;;;;;;;25.28;71.33;99739.31;5047344;28;20206;-64
2022/06/17 05:28:53;;;;;;;4.10;3.93;;;;;;;25.48;69.15;99746.34;5053053;28;20204;-64
2022/06/17 05:31:24;;;;;;;4.23;3.83;;;;;;;25.72;69.88;99746.84;5051693;28;20592;-63
2022/06/17 05:33:50;;;;;;;4.77;4.47;;;;;;;25.91;67.68;99746.09;5052995;28;20212;-63
2022/06/17 05:36:18;;;;;;;4.37;4.17;;;;;;;26.00;65.63;99738.22;5052617;28;20611;-63
2022/06/17 05:38:45;;;;;;;4.60;4.33;;;;;;;26.26;67.13;99743.00;5052987;28;20193;-63
2022/06/17 05:41:16;;;;;;;4.83;4.63;;;;;;;26.27;65.31;99745.47;5052481;28;20201;-63
2022/06/17 05:43:43;;;;;;;4.60;4.40;;;;;;;26.17;67.79;99739.41;5051376;28;20197;-63
2022/06/17 05:46:10;;;;;;;5.30;5.10;;;;;;;26.27;66.88;99728.88;5043301;28;20216;-63
2022/06/17 05:48:38;;;;;;;4.50;4.30;;;;;;;26.44;66.31;99738.69;5051456;28;20208;-64
2022/06/17 05:51:05;;;;;;;4.70;4.50;;;;;;;26.62;65.67;99734.41;5051765;28;20335;-64
2022/06/17 05:53:32;;;;;;;7.03;4.50;;;;;;;26.71;67.65;99728.31;5052268;28;20231;-63
2022/06/17 05:55:59;;;;;;;5.37;5.07;;;;;;;26.93;66.33;99728.03;5052561;28;20201;-63
2022/06/17 05:58:25;;;;;;;4.63;4.43;;;;;;;27.06;64.28;99733.81;5052330;28;20201;-64
2022/06/17 06:00:53;;;;;;;5.17;4.77;;;;;;;27.13;65.77;99724.38;5047290;28;20574;-63
2022/06/17 06:03:21;;;;;;;6.00;5.37;;;;;;;27.34;66.04;99728.56;5035310;28;20214;-65
2022/06/17 06:05:49;;;;;;;5.93;5.63;;;;;;;27.53;64.01;99725.88;5032380;28;20198;-66
2022/06/17 06:08:16;;;;;;;6.37;6.07;;;;;;;27.53;66.37;99725.88;5042758;28;20588;-67
2022/06/17 06:10:44;;;;;;;6.00;5.60;;;;;;;27.69;65.20;99720.00;5050673;28;20207;-65
2022/06/17 06:13:16;;;;;;;5.70;5.40;;;;;;;27.63;63.87;99724.88;5052185;28;20212;-65
2022/06/17 06:15:46;;;;;;;6.50;6.20;;;;;;;27.72;61.35;99725.81;5052155;28;20308;-66
2022/06/17 06:18:16;;;;;;;6.63;5.87;;;;;;;27.61;62.94;99712.81;5052322;28;20197;-65
2022/06/17 06:20:43;;;;;;;6.70;6.20;;;;;;;27.82;63.16;99721.28;5051811;28;20193;-65
2022/06/17 06:23:11;;;;;;;5.63;5.33;;;;;;;27.81;63.14;99698.56;5052341;28;20711;-65
2022/06/17 06:25:38;;;;;;;6.83;6.10;;;;;;;27.86;61.90;99717.38;5051890;28;20207;-65
2022/06/17 06:28:10;;;;;;;6.80;5.53;;;;;;;27.61;62.26;99702.28;5032517;28;20202;-65
2022/06/17 06:30:37;;;;;;;6.60;6.30;;;;;;;27.84;65.15;99708.81;5048517;28;20228;-64
2022/06/17 06:33:04;;;;;;;6.47;6.17;;;;;;;27.87;63.18;99712.94;5044472;28;20220;-64
2022/06/17 06:35:33;;;;;;;6.33;6.03;;;;;;;27.69;62.95;99715.53;5051762;28;20203;-63
2022/06/17 06:38:01;;;;;;;6.27;5.90;;;;;;;27.94;63.75;99700.84;5051337;28;20297;-64
2022/06/17 06:40:30;;;;;;;6.83;6.23;;;;;;;28.19;62.44;99702.75;5040744;28;20193;-63
2022/06/17 06:42:58;;;;;;;5.93;5.60;;;;;;;28.35;61.32;99697.63;5051497;28;20197;-63
2022/06/17 06:45:27;;;;;;;6.13;5.83;;;;;;;28.46;60.37;99696.56;5040926;28;20212;-63
2022/06/17 06:47:55;;;;;;;6.37;5.63;;;;;;;28.81;60.72;99693.91;5050528;28;20572;-63
2022/06/17 06:50:25;;;;;;;6.03;5.53;;;;;;;28.95;61.47;99666.09;5050143;28;20208;-63
2022/06/17 06:52:52;;;;;;;6.17;5.77;;;;;;;29.09;60.28;99681.34;5049268;28;21745;-63
2022/06/17 06:55:20;;;;;;;6.32;5.88;;;;;;;29.06;59.69;99673.72;5046379;28;20723;-64
2022/06/17 06:57:51;;;;;;;6.38;6.07;;;;;;;29.14;59.07;99677.22;5051215;28;20196;-63
2022/06/17 07:00:22;;;;;;;6.38;5.95;;;;;;;29.25;58.69;99675.34;5051645;28;20631;-65
2022/06/17 07:02:49;;;;;;;5.20;4.90;;;;;;;29.36;60.87;99672.44;5034806;28;20205;-65
2022/06/17 07:05:16;;;;;;;6.03;5.63;;;;;;;29.52;59.24;99664.56;5042599;28;20644;-65
2022/06/17 07:07:44;;;;;;;5.13;4.82;;;;;;;29.75;58.45;99652.41;5051363;28;20718;-66
2022/06/17 07:10:14;;;;;;;5.20;5.00;;;;;;;30.00;58.11;99656.75;5051445;28;20680;-65
2022/06/17 07:12:40;;;;;;;5.63;5.30;;;;;;;30.08;54.45;99654.09;5044552;28;20216;-65
2022/06/17 07:15:11;;;;;;;5.57;5.07;;;;;;;29.88;56.94;99652.78;5050010;28;20212;-65
2022/06/17 07:17:38;;;;;;;5.40;4.95;;;;;;;29.82;55.60;99637.56;5038077;28;20692;-65
2022/06/17 07:20:07;;;;;;;4.70;4.35;;;;;;;30.01;57.05;99631.97;5050961;28;20204;-65
2022/06/17 07:22:36;;;;;;;4.43;4.13;;;;;;;29.94;54.95;99641.56;5051211;28;20557;-65
2022/06/17 07:25:03;;;;;;;4.93;4.55;;;;;;;29.97;55.03;99641.22;5037517;28;20889;-65
2022/06/17 07:27:30;;;;;;;4.57;4.38;;;;;;;29.64;55.93;99631.56;5046068;28;20284;-65
2022/06/17 07:29:57;;;;;;;4.55;4.30;;;;;;;29.57;54.82;99627.91;5051030;28;20204;-66
2022/06/17 07:32:25;;;;;;;4.40;4.20;;;;;;;29.85;57.00;99631.13;5050912;28;20196;-65
2022/06/17 07:34:52;;;;;;;4.47;4.28;;;;;;;29.71;54.26;99629.91;5051088;28;20201;-65
2022/06/17 07:40:04;;;;;;;4.00;3.80;;;;;;;29.90;54.83;99629.66;5050756;28;20210;-65
2022/06/17 07:42:38;;;;;;;4.13;3.92;;;;;;;30.04;54.89;99626.38;5051186;28;20234;-65
2022/06/17 07:45:08;;;;;;;4.13;3.83;;;;;;;30.23;56.32;99629.66;5041303;28;20199;-65
2022/06/17 07:47:37;;;;;;;4.35;4.05;;;;;;;30.27;53.75;99630.97;5050775;28;20197;-65
2022/06/17 07:50:06;;;;;;;4.90;4.50;;;;;;;30.29;51.87;99634.28;5050859;28;20205;-65
2022/06/17 07:52:33;;;;;;;3.92;3.72;;;;;;;30.40;56.74;99634.81;5037021;28;20205;-65
2022/06/17 07:55:00;;;;;;;3.95;3.75;;;;;;;30.45;52.73;99635.13;5042833;28;20711;-65
2022/06/17 07:57:27;;;;;;;4.63;4.43;;;;;;;30.61;53.03;99634.28;5050915;28;20208;-65
2022/06/17 07:59:54;;;;;;;5.47;5.28;;;;;;;30.73;51.09;99629.47;5051063;28;20192;-65
2022/06/17 08:02:21;;;;;;;4.25;4.05;;;;;;;30.93;52.75;99628.91;5050768;28;20201;-65
2022/06/17 08:04:49;;;;;;;4.15;3.95;;;;;;;30.94;49.23;99630.56;5047309;28;20562;-65
2022/06/17 08:07:16;;;;;;;4.70;4.40;;;;;;;30.96;51.07;99625.94;5054869;28;20711;-65
2022/06/17 08:09:43;;;;;;;5.07;4.18;;;;;;;30.93;54.51;99622.78;5054592;28;20200;-65
2022/06/17 08:12:13;;;;;;;3.83;3.72;;;;;;;30.85;50.76;99601.63;5054474;28;20231;-64
2022/06/17 08:14:43;;;;;;;5.00;4.13;;;;;;;30.97;54.32;99624.13;5054507;28;20765;-63
2022/06/17 08:17:12;;;;;;;3.90;3.80;;;;;;;31.05;54.50;99619.59;5044996;28;20205;-63
2022/06/17 08:19:39;;;;;;;4.28;4.00;;;;;;;31.30;52.66;99619.50;5053204;28;20258;-64
2022/06/17 08:22:10;;;;;;;4.30;4.00;;;;;;;31.07;50.98;99619.44;5052655;28;20200;-63
2022/06/17 08:24:37;;;;;;;4.07;3.88;;;;;;;30.59;51.76;99617.75;5053809;28;20188;-64
2022/06/17 08:27:05;;;;;;;3.95;3.75;;;;;;;30.90;50.93;99623.13;5054612;28;20626;-63
2022/06/17 08:29:32;;;;;;;4.15;3.80;;;;;;;30.97;51.90;99614.34;5053870;28;20612;-63
2022/06/17 08:32:45;;;;;;;4.22;4.05;;;;;;;31.04;50.43;99610.03;5054346;28;20208;-64
2022/06/17 08:34:46;;;;;;;4.70;4.50;;;;;;;30.88;50.33;99607.41;5045632;28;20304;-63
2022/06/17 08:37:16;;;;;;;4.75;4.47;;;;;;;30.61;50.78;99607.81;5049888;28;20228;-63
2022/06/17 08:39:47;;;;;;;4.40;3.95;;;;;;;30.78;49.11;99606.78;5053517;28;20192;-64
2022/06/17 08:42:27;;;;;;;4.50;4.30;;;;;;;30.81;50.58;99606.44;5052411;28;20278;-63
2022/06/17 08:45:02;;;;;;;4.22;4.03;;;;;;;30.91;50.36;99609.72;5054117;28;20579;-63
2022/06/17 08:47:45;;;;;;;3.22;3.13;;;;;;;31.17;52.19;99605.00;5051089;28;20561;-63
2022/06/17 08:50:36;;;;;;;4.18;3.97;;;;;;;31.41;49.27;99600.56;5053936;28;20208;-64
2022/06/17 08:53:39;;;;;;;4.40;4.20;;;;;;;31.60;48.34;99598.31;5053051;28;20209;-63
2022/06/17 08:56:16;;;;;;;4.38;4.13;;;;;;;31.50;46.96;99589.78;5029276;28;20197;-63
2022/06/17 08:58:54;;;;;;;4.45;4.25;;;;;;;31.53;50.72;99593.91;5044399;28;20203;-63
2022/06/17 09:01:27;;;;;;;3.95;3.75;;;;;;;31.53;53.09;99599.22;5050896;28;20212;-63
2022/06/17 09:04:15;;;;;;;3.92;3.75;;;;;;;31.53;49.98;99593.91;5043008;28;20193;-63
2022/06/17 09:06:56;;;;;;;5.60;3.80;;;;;;;31.77;49.50;99601.69;5053410;28;20292;-63
2022/06/17 09:09:52;;;;;;;4.40;4.10;;;;;;;31.84;47.37;99585.91;5047507;28;20205;-63
2022/06/17 09:12:32;;;;;;;3.88;3.75;;;;;;;32.08;47.20;99605.13;5049228;28;20193;-64
2022/06/17 09:15:10;;;;;;;4.10;3.95;;;;;;;31.97;46.73;99592.25;5042043;28;20224;-64
2022/06/17 09:17:49;;;;;;;4.25;3.95;;;;;;;32.10;47.55;99597.81;5047482;28;20549;-63
2022/06/17 09:20:23;;;;;;;3.90;3.70;;;;;;;32.22;44.62;99595.53;5053239;28;20203;-64
2022/06/17 09:22:56;;;;;;;4.10;3.90;;;;;;;32.04;47.38;99593.22;5052050;28;20704;-64
2022/06/17 09:25:30;;;;;;;4.13;3.92;;;;;;;31.75;48.50;99571.88;5042457;28;20617;-63
2022/06/17 09:27:59;;;;;;;3.60;3.50;;;;;;;31.66;49.26;99572.94;5052304;28;20192;-64
2022/06/17 09:30:31;;;;;;;3.88;3.78;;;;;;;31.59;47.21;99577.31;5053187;28;20207;-63
2022/06/17 09:33:07;;;;;;;5.18;4.88;;;;;;;31.66;48.46;99562.34;5052471;28;20233;-63
2022/06/17 09:35:37;;;;;;;6.90;5.65;;;;;;;31.72;48.38;99559.00;5052647;28;20578;-63
2022/06/17 09:38:10;;;;;;;4.40;4.20;;;;;;;31.63;45.64;99560.84;5048672;28;20311;-63
2022/06/17 09:40:41;;;;;;;4.30;4.10;;;;;;;31.59;47.43;99567.53;5052047;28;20208;-63
2022/06/17 09:43:16;;;;;;;3.85;3.65;;;;;;;31.44;44.35;99573.75;5050149;28;20200;-63
2022/06/17 09:45:49;;;;;;;4.65;4.32;;;;;;;31.46;46.92;99550.53;5052689;28;20204;-63
2022/06/17 09:48:20;;;;;;;4.43;4.22;;;;;;;31.26;47.25;99560.75;5036119;28;20198;-63
2022/06/17 09:50:52;;;;;;;4.68;4.30;;;;;;;31.29;48.31;99549.81;5051991;28;20204;-67
2022/06/17 09:53:25;;;;;;;3.58;3.38;;;;;;;31.48;47.32;99556.47;5051217;28;20197;-67
2022/06/17 09:55:58;;;;;;;3.97;3.88;;;;;;;31.81;48.17;99554.44;5052252;28;20255;-67
2022/06/17 09:58:33;;;;;;;4.22;4.13;;;;;;;32.03;46.29;99549.09;5032510;28;20212;-67
2022/06/17 10:01:02;;;;;;;4.47;4.28;;;;;;;32.04;50.46;99540.19;5032191;28;20202;-67
2022/06/17 10:03:32;;;;;;;4.22;4.03;;;;;;;32.19;46.92;99542.84;5032517;28;20213;-67
2022/06/17 10:06:13;;;;;;;4.40;4.20;;;;;;;32.19;44.64;99537.53;5051615;28;20219;-67
2022/06/17 10:08:50;;;;;;;4.07;3.88;;;;;;;31.65;47.23;99518.28;5052362;28;20197;-67
2022/06/17 10:11:22;;;;;;;5.30;3.83;;;;;;;31.74;48.01;99522.50;5051329;28;20207;-67
2022/06/17 10:14:01;;;;;;;4.65;4.45;;;;;;;31.94;50.87;99528.97;5035863;28;20224;-67
2022/06/17 10:19:36;;;;;;;4.25;4.05;;;;;;;32.46;48.08;99538.75;5052129;28;20204;-67
2022/06/17 10:22:14;;;;;;;4.63;4.32;;;;;;;32.59;47.61;99533.66;5051701;28;20211;-67
2022/06/17 10:24:52;;;;;;;4.57;4.38;;;;;;;32.19;44.76;99526.94;5052191;28;20204;-67
2022/06/17 10:27:34;;;;;;;4.15;3.95;;;;;;;31.64;47.29;99527.22;5051219;28;20197;-67
2022/06/17 10:30:07;;;;;;;4.60;4.40;;;;;;;31.83;50.16;99524.06;5051639;28;20633;-67
2022/06/17 10:32:37;;;;;;;4.53;4.28;;;;;;;31.96;48.79;99532.25;5031879;28;20268;-67
2022/06/17 10:35:12;;;;;;;4.78;4.45;;;;;;;31.92;45.54;99530.16;5044137;28;20243;-67
2022/06/17 10:37:39;;;;;;;5.10;4.80;;;;;;;31.89;46.77;99520.72;5051206;28;20236;-67
2022/06/17 10:40:09;;;;;;;9.18;5.18;;;;;;;31.99;46.86;99520.47;5051453;28;20561;-66
2022/06/17 10:42:36;;;;;;;5.10;4.80;;;;;;;32.15;50.64;99515.84;5051534;28;20275;-67
2022/06/17 10:45:14;;;;;;;4.70;4.40;;;;;;;32.38;47.24;99512.28;5051453;28;20197;-67
2022/06/17 10:47:50;;;;;;;4.72;4.53;;;;;;;32.24;45.79;99513.97;5051662;28;20199;-67
2022/06/17 10:50:20;;;;;;;4.95;4.60;;;;;;;32.19;45.62;99514.50;5051259;28;20192;-67
2022/06/17 10:52:50;;;;;;;4.68;4.38;;;;;;;32.37;45.96;99519.47;5051309;28;20206;-67
2022/06/17 10:55:21;;;;;;;4.68;4.07;;;;;;;32.42;45.88;99492.34;5050951;28;20213;-66
2022/06/17 10:58:13;;;;;;;4.22;4.03;;;;;;;32.53;44.57;99507.81;5051455;28;20189;-66
2022/06/17 11:00:53;;;;;;;4.72;4.43;;;;;;;32.54;44.71;99514.75;5051475;28;20201;-66
2022/06/17 11:03:26;;;;;;;4.72;4.53;;;;;;;32.76;46.81;99503.25;5051162;28;20201;-66
2022/06/17 11:05:57;;;;;;;4.07;3.95;;;;;;;32.81;44.32;99498.19;5048702;28;20188;-66
2022/06/17 11:08:34;;;;;;;4.53;4.32;;;;;;;32.75;42.54;99501.59;5050976;28;20196;-65
2022/06/17 11:13:46;;;;;;;4.47;4.28;;;;;;;32.03;43.88;99480.13;5050879;28;20192;-66
2022/06/17 11:16:18;;;;;;;4.25;4.10;;;;;;;32.16;45.92;99490.97;5050986;28;20223;-65
2022/06/17 11:18:50;;;;;;;4.30;4.00;;;;;;;32.19;46.33;99484.47;5050988;28;20213;-65
2022/06/17 11:21:24;;;;;;;4.85;4.65;;;;;;;32.18;44.91;99474.91;5034100;28;20203;-65
2022/06/17 11:23:53;;;;;;;5.07;4.28;;;;;;;32.15;46.06;99483.22;5049928;28;20254;-66
2022/06/17 11:26:24;;;;;;;4.45;4.25;;;;;;;31.74;45.36;99464.19;5050590;28;20243;-65
2022/06/17 11:28:53;;;;;;;4.53;4.32;;;;;;;31.81;44.37;99473.06;5051095;28;20297;-66
2022/06/17 11:31:34;;;;;;;4.80;4.43;;;;;;;31.99;45.66;99468.25;5048475;28;20208;-65
2022/06/17 11:34:11;;;;;;;4.38;4.13;;;;;;;31.95;44.39;99464.31;5051016;28;20584;-66
2022/06/17 11:36:53;;;;;;;5.07;4.88;;;;;;;31.80;46.05;99462.63;5049612;28;20236;-66
2022/06/17 11:39:31;;;;;;;5.07;4.78;;;;;;;32.09;43.58;99462.69;5051046;28;20192;-66
2022/06/17 11:41:59;;;;;;;4.63;4.43;;;;;;;32.08;44.98;99445.97;5057682;28;20267;-66
2022/06/17 11:44:26;;;;;;;4.95;4.65;;;;;;;32.25;44.76;99446.59;5057452;28;20242;-66
2022/06/17 11:46:58;;;;;;;4.40;4.20;;;;;;;32.45;45.67;99447.69;5057444;28;20648;-66
2022/06/17 11:49:26;;;;;;;4.22;4.03;;;;;;;32.56;45.84;99433.13;5057109;28;20196;-66
2022/06/17 11:52:00;;;;;;;4.40;4.10;;;;;;;32.29;42.05;99447.88;5057118;28;20232;-66
2022/06/17 11:54:34;;;;;;;4.65;4.45;;;;;;;32.12;44.11;99436.63;5040526;28;20593;-65
2022/06/17 11:57:14;;;;;;;4.30;4.10;;;;;;;31.98;45.31;99440.09;5037354;28;20585;-66